sensor_id;sensor_type;location;lat;lon;timestamp;temperature;humidity
71142;DHT22;58808;59.366;17.970;2023-08-20T00:01:30;17.40;99.90
71142;DHT22;58808;59.366;17.970;2023-08-20T00:03:56;17.40;99.90
71142;DHT22;58808;59.366;17.970;2023-08-20T00:06:22;17.40;99.90
71142;DHT22;58808;59.366;17.970;2023-08-20T00:08:49;17.40;99.90
71142;DHT22;58808;59.366;17.970;2023-08-20T00:11:15;17.30;99.90
71142;DHT22;58808;59.366;17.970;2023-08-20T00:13:41;17.30;99.90
71142;DHT22;58808;59.366;17.970;2023-08-20T00:16:07;17.30;99.90
71142;DHT22;58808;59.366;17.970;2023-08-20T00:18:33;17.30;99.90
71142;DHT22;58808;59.366;17.970;2023-08-20T00:20:59;17.30;99.90
71142;DHT22;58808;59.366;17.970;2023-08-20T00:23:26;17.30;99.90
71142;DHT22;58808;59.366;17.970;2023-08-20T00:25:52;17.30;99.90
71142;DHT22;58808;59.366;17.970;2023-08-20T00:28:20;17.30;99.90
71142;DHT22;58808;59.366;17.970;2023-08-20T00:30:46;17.20;99.90
71142;DHT22;58808;59.366;17.970;2023-08-20T00:33:11;17.20;99.90
71142;DHT22;58808;59.366;17.970;2023-08-20T00:35:37;17.20;99.90
71142;DHT22;58808;59.366;17.970;2023-08-20T00:38:03;17.20;99.90
71142;DHT22;58808;59.366;17.970;2023-08-20T00:40:30;17.20;99.90
71142;DHT22;58808;59.366;17.970;2023-08-20T00:42:56;17.20;99.90
71142;DHT22;58808;59.366;17.970;2023-08-20T00:45:22;17.20;99.90
71142;DHT22;58808;59.366;17.970;2023-08-20T00:47:48;17.20;99.90
71142;DHT22;58808;59.366;17.970;2023-08-20T00:50:14;17.10;99.90
71142;DHT22;58808;59.366;17.970;2023-08-20T00:52:40;17.10;99.90
71142;DHT22;58808;59.366;17.970;2023-08-20T00:55:10;17.10;99.90
71142;DHT22;58808;59.366;17.970;2023-08-20T00:57:39;17.10;99.90
71142;DHT22;58808;59.366;17.970;2023-08-20T01:00:07;17.20;99.90
71142;DHT22;58808;59.366;17.970;2023-08-20T01:02:37;17.20;99.90
71142;DHT22;58808;59.366;17.970;2023-08-20T01:05:04;17.20;99.90
71142;DHT22;58808;59.366;17.970;2023-08-20T01:12:53;17.10;99.90
71142;DHT22;58808;59.366;17.970;2023-08-20T01:15:19;17.10;99.90
71142;DHT22;58808;59.366;17.970;2023-08-20T01:17:45;17.00;99.90
71142;DHT22;58808;59.366;17.970;2023-08-20T01:20:14;17.00;99.90
71142;DHT22;58808;59.366;17.970;2023-08-20T01:23:47;17.00;99.90
71142;DHT22;58808;59.366;17.970;2023-08-20T01:26:06;17.00;99.90
71142;DHT22;58808;59.366;17.970;2023-08-20T01:28:34;17.00;99.90
71142;DHT22;58808;59.366;17.970;2023-08-20T01:31:00;17.00;99.90
71142;DHT22;58808;59.366;17.970;2023-08-20T01:33:27;17.00;99.90
71142;DHT22;58808;59.366;17.970;2023-08-20T01:35:54;17.00;99.90
71142;DHT22;58808;59.366;17.970;2023-08-20T01:38:20;16.90;99.90
71142;DHT22;58808;59.366;17.970;2023-08-20T01:40:46;16.90;99.90
71142;DHT22;58808;59.366;17.970;2023-08-20T01:43:12;16.90;99.90
71142;DHT22;58808;59.366;17.970;2023-08-20T01:45:37;17.00;99.90
71142;DHT22;58808;59.366;17.970;2023-08-20T01:48:03;17.00;99.90
71142;DHT22;58808;59.366;17.970;2023-08-20T01:50:30;16.90;99.90
71142;DHT22;58808;59.366;17.970;2023-08-20T01:52:56;16.90;99.90
71142;DHT22;58808;59.366;17.970;2023-08-20T01:55:21;16.90;99.90
71142;DHT22;58808;59.366;17.970;2023-08-20T01:57:47;16.90;99.90
71142;DHT22;58808;59.366;17.970;2023-08-20T02:00:13;16.90;99.90
71142;DHT22;58808;59.366;17.970;2023-08-20T02:02:39;16.90;99.90
71142;DHT22;58808;59.366;17.970;2023-08-20T02:05:05;16.80;99.90
71142;DHT22;58808;59.366;17.970;2023-08-20T02:07:30;16.90;99.90
71142;DHT22;58808;59.366;17.970;2023-08-20T02:09:56;16.80;99.90
71142;DHT22;58808;59.366;17.970;2023-08-20T02:12:22;16.80;99.90
71142;DHT22;58808;59.366;17.970;2023-08-20T02:14:47;16.80;99.90
71142;DHT22;58808;59.366;17.970;2023-08-20T02:17:13;16.80;99.90
71142;DHT22;58808;59.366;17.970;2023-08-20T02:19:39;16.80;99.90
71142;DHT22;58808;59.366;17.970;2023-08-20T02:22:05;16.80;99.90
71142;DHT22;58808;59.366;17.970;2023-08-20T02:24:31;16.70;99.90
71142;DHT22;58808;59.366;17.970;2023-08-20T02:26:57;16.70;99.90
71142;DHT22;58808;59.366;17.970;2023-08-20T02:29:22;16.70;99.90
71142;DHT22;58808;59.366;17.970;2023-08-20T02:31:48;16.70;99.90
71142;DHT22;58808;59.366;17.970;2023-08-20T02:34:14;16.70;99.90
71142;DHT22;58808;59.366;17.970;2023-08-20T02:36:39;16.70;99.90
71142;DHT22;58808;59.366;17.970;2023-08-20T02:39:05;16.70;99.90
71142;DHT22;58808;59.366;17.970;2023-08-20T02:41:34;16.70;99.90
71142;DHT22;58808;59.366;17.970;2023-08-20T02:44:00;16.70;99.90
71142;DHT22;58808;59.366;17.970;2023-08-20T02:46:25;16.70;99.90
71142;DHT22;58808;59.366;17.970;2023-08-20T02:48:51;16.60;99.90
71142;DHT22;58808;59.366;17.970;2023-08-20T02:51:17;16.60;99.90
71142;DHT22;58808;59.366;17.970;2023-08-20T02:53:42;16.60;99.90
71142;DHT22;58808;59.366;17.970;2023-08-20T02:56:08;16.60;99.90
71142;DHT22;58808;59.366;17.970;2023-08-20T02:58:34;16.60;99.90
71142;DHT22;58808;59.366;17.970;2023-08-20T03:01:00;16.60;99.90
71142;DHT22;58808;59.366;17.970;2023-08-20T03:03:25;16.60;99.90
71142;DHT22;58808;59.366;17.970;2023-08-20T03:05:51;16.60;99.90
71142;DHT22;58808;59.366;17.970;2023-08-20T03:08:17;16.60;99.90
71142;DHT22;58808;59.366;17.970;2023-08-20T03:10:42;16.50;99.90
71142;DHT22;58808;59.366;17.970;2023-08-20T03:13:08;16.60;99.90
71142;DHT22;58808;59.366;17.970;2023-08-20T03:15:34;16.60;99.90
71142;DHT22;58808;59.366;17.970;2023-08-20T03:18:00;16.60;99.90
71142;DHT22;58808;59.366;17.970;2023-08-20T03:20:25;16.50;99.90
71142;DHT22;58808;59.366;17.970;2023-08-20T03:22:52;16.50;99.90
71142;DHT22;58808;59.366;17.970;2023-08-20T03:25:18;16.50;99.90
71142;DHT22;58808;59.366;17.970;2023-08-20T03:27:43;16.50;99.90
71142;DHT22;58808;59.366;17.970;2023-08-20T03:30:10;16.50;99.90
71142;DHT22;58808;59.366;17.970;2023-08-20T03:32:35;16.50;99.90
71142;DHT22;58808;59.366;17.970;2023-08-20T03:35:01;16.50;99.90
71142;DHT22;58808;59.366;17.970;2023-08-20T03:37:28;16.50;99.90
71142;DHT22;58808;59.366;17.970;2023-08-20T03:39:54;16.50;99.90
71142;DHT22;58808;59.366;17.970;2023-08-20T03:42:19;16.50;99.90
71142;DHT22;58808;59.366;17.970;2023-08-20T03:44:45;16.50;99.90
71142;DHT22;58808;59.366;17.970;2023-08-20T03:47:11;16.50;99.90
71142;DHT22;58808;59.366;17.970;2023-08-20T03:49:37;16.50;99.90
71142;DHT22;58808;59.366;17.970;2023-08-20T03:52:03;16.50;99.90
71142;DHT22;58808;59.366;17.970;2023-08-20T03:54:29;16.40;99.90
71142;DHT22;58808;59.366;17.970;2023-08-20T03:56:55;16.50;99.90
71142;DHT22;58808;59.366;17.970;2023-08-20T03:59:21;16.40;99.90
71142;DHT22;58808;59.366;17.970;2023-08-20T04:01:46;16.40;99.90
71142;DHT22;58808;59.366;17.970;2023-08-20T04:04:12;16.40;99.90
71142;DHT22;58808;59.366;17.970;2023-08-20T04:06:38;16.50;99.90
71142;DHT22;58808;59.366;17.970;2023-08-20T04:09:03;16.50;99.90
71142;DHT22;58808;59.366;17.970;2023-08-20T04:11:30;16.50;99.90
71142;DHT22;58808;59.366;17.970;2023-08-20T04:13:56;16.50;99.90
71142;DHT22;58808;59.366;17.970;2023-08-20T04:16:22;16.50;99.90
71142;DHT22;58808;59.366;17.970;2023-08-20T04:18:47;16.50;99.90
71142;DHT22;58808;59.366;17.970;2023-08-20T04:21:13;16.50;99.90
71142;DHT22;58808;59.366;17.970;2023-08-20T04:23:40;16.50;99.90
71142;DHT22;58808;59.366;17.970;2023-08-20T04:26:07;16.40;99.90
71142;DHT22;58808;59.366;17.970;2023-08-20T04:28:32;16.40;99.90
71142;DHT22;58808;59.366;17.970;2023-08-20T04:30:58;16.40;99.90
71142;DHT22;58808;59.366;17.970;2023-08-20T04:33:26;16.40;99.90
71142;DHT22;58808;59.366;17.970;2023-08-20T04:35:52;16.40;99.90
71142;DHT22;58808;59.366;17.970;2023-08-20T04:38:18;16.50;99.90
71142;DHT22;58808;59.366;17.970;2023-08-20T04:40:46;16.50;99.90
71142;DHT22;58808;59.366;17.970;2023-08-20T04:43:13;16.50;99.90
71142;DHT22;58808;59.366;17.970;2023-08-20T04:45:39;16.40;99.90
71142;DHT22;58808;59.366;17.970;2023-08-20T04:48:04;16.40;99.90
71142;DHT22;58808;59.366;17.970;2023-08-20T04:50:30;16.40;99.90
71142;DHT22;58808;59.366;17.970;2023-08-20T04:52:56;16.40;99.90
71142;DHT22;58808;59.366;17.970;2023-08-20T04:55:24;16.40;99.90
71142;DHT22;58808;59.366;17.970;2023-08-20T04:57:50;16.40;99.90
71142;DHT22;58808;59.366;17.970;2023-08-20T05:00:15;16.40;99.90
71142;DHT22;58808;59.366;17.970;2023-08-20T05:02:41;16.40;99.90
71142;DHT22;58808;59.366;17.970;2023-08-20T05:05:07;16.40;99.90
71142;DHT22;58808;59.366;17.970;2023-08-20T05:07:33;16.40;99.90
71142;DHT22;58808;59.366;17.970;2023-08-20T05:09:58;16.50;99.90
71142;DHT22;58808;59.366;17.970;2023-08-20T05:12:24;16.50;99.90
71142;DHT22;58808;59.366;17.970;2023-08-20T05:14:50;16.50;99.90
71142;DHT22;58808;59.366;17.970;2023-08-20T05:17:15;16.50;99.90
71142;DHT22;58808;59.366;17.970;2023-08-20T05:19:41;16.50;99.90
71142;DHT22;58808;59.366;17.970;2023-08-20T05:22:07;16.50;99.90
71142;DHT22;58808;59.366;17.970;2023-08-20T05:24:33;16.50;99.90
71142;DHT22;58808;59.366;17.970;2023-08-20T05:27:09;16.40;99.90
71142;DHT22;58808;59.366;17.970;2023-08-20T05:29:36;16.50;99.90
71142;DHT22;58808;59.366;17.970;2023-08-20T05:32:02;16.50;99.90
71142;DHT22;58808;59.366;17.970;2023-08-20T05:34:28;16.50;99.90
71142;DHT22;58808;59.366;17.970;2023-08-20T05:36:53;16.50;99.90
71142;DHT22;58808;59.366;17.970;2023-08-20T05:39:19;16.50;99.90
71142;DHT22;58808;59.366;17.970;2023-08-20T05:41:45;16.50;99.90
71142;DHT22;58808;59.366;17.970;2023-08-20T05:44:10;16.50;99.90
71142;DHT22;58808;59.366;17.970;2023-08-20T05:46:36;16.50;99.90
71142;DHT22;58808;59.366;17.970;2023-08-20T05:49:02;16.50;99.90
71142;DHT22;58808;59.366;17.970;2023-08-20T05:51:28;16.50;99.90
71142;DHT22;58808;59.366;17.970;2023-08-20T05:53:53;16.60;99.90
71142;DHT22;58808;59.366;17.970;2023-08-20T05:56:19;16.50;99.90
71142;DHT22;58808;59.366;17.970;2023-08-20T05:58:45;16.60;99.90
71142;DHT22;58808;59.366;17.970;2023-08-20T06:01:11;16.60;99.90
71142;DHT22;58808;59.366;17.970;2023-08-20T06:03:36;16.60;99.90
71142;DHT22;58808;59.366;17.970;2023-08-20T06:06:02;16.60;99.90
71142;DHT22;58808;59.366;17.970;2023-08-20T06:08:28;16.60;99.90
71142;DHT22;58808;59.366;17.970;2023-08-20T06:10:54;16.60;99.90
71142;DHT22;58808;59.366;17.970;2023-08-20T06:13:19;16.70;99.90
71142;DHT22;58808;59.366;17.970;2023-08-20T06:15:45;16.60;99.90
71142;DHT22;58808;59.366;17.970;2023-08-20T06:18:11;16.70;99.90
71142;DHT22;58808;59.366;17.970;2023-08-20T06:20:36;16.70;99.90
71142;DHT22;58808;59.366;17.970;2023-08-20T06:23:02;16.70;99.90
71142;DHT22;58808;59.366;17.970;2023-08-20T06:25:28;16.70;99.90
71142;DHT22;58808;59.366;17.970;2023-08-20T06:27:53;16.60;99.90
71142;DHT22;58808;59.366;17.970;2023-08-20T06:30:19;16.60;99.90
71142;DHT22;58808;59.366;17.970;2023-08-20T06:32:45;16.70;99.90
71142;DHT22;58808;59.366;17.970;2023-08-20T06:35:10;16.60;99.90
71142;DHT22;58808;59.366;17.970;2023-08-20T06:37:38;16.70;99.90
71142;DHT22;58808;59.366;17.970;2023-08-20T06:40:05;16.70;99.90
71142;DHT22;58808;59.366;17.970;2023-08-20T06:42:30;16.70;99.90
71142;DHT22;58808;59.366;17.970;2023-08-20T06:44:56;16.70;99.90
71142;DHT22;58808;59.366;17.970;2023-08-20T06:47:22;16.70;99.90
71142;DHT22;58808;59.366;17.970;2023-08-20T06:49:49;16.80;99.90
71142;DHT22;58808;59.366;17.970;2023-08-20T06:52:14;16.80;99.90
71142;DHT22;58808;59.366;17.970;2023-08-20T06:54:46;16.80;99.90
71142;DHT22;58808;59.366;17.970;2023-08-20T06:57:12;16.80;99.90
71142;DHT22;58808;59.366;17.970;2023-08-20T06:59:38;16.90;99.90
71142;DHT22;58808;59.366;17.970;2023-08-20T07:02:03;16.90;99.90
71142;DHT22;58808;59.366;17.970;2023-08-20T07:04:29;16.90;99.90
71142;DHT22;58808;59.366;17.970;2023-08-20T07:06:55;16.80;99.90
71142;DHT22;58808;59.366;17.970;2023-08-20T07:09:21;16.90;99.90
71142;DHT22;58808;59.366;17.970;2023-08-20T07:11:46;16.90;99.90
71142;DHT22;58808;59.366;17.970;2023-08-20T07:14:12;16.90;99.90
71142;DHT22;58808;59.366;17.970;2023-08-20T07:16:38;17.00;99.90
71142;DHT22;58808;59.366;17.970;2023-08-20T07:19:03;17.00;99.90
71142;DHT22;58808;59.366;17.970;2023-08-20T07:21:29;17.00;99.90
71142;DHT22;58808;59.366;17.970;2023-08-20T07:23:55;17.00;99.90
71142;DHT22;58808;59.366;17.970;2023-08-20T07:26:21;17.00;99.90
71142;DHT22;58808;59.366;17.970;2023-08-20T07:28:47;17.00;99.90
71142;DHT22;58808;59.366;17.970;2023-08-20T07:31:26;17.10;99.90
71142;DHT22;58808;59.366;17.970;2023-08-20T07:33:53;17.10;99.90
71142;DHT22;58808;59.366;17.970;2023-08-20T07:36:20;17.20;99.90
71142;DHT22;58808;59.366;17.970;2023-08-20T07:38:50;17.20;99.90
71142;DHT22;58808;59.366;17.970;2023-08-20T07:41:17;17.20;99.90
71142;DHT22;58808;59.366;17.970;2023-08-20T07:43:43;17.20;99.90
71142;DHT22;58808;59.366;17.970;2023-08-20T07:46:09;17.20;99.90
71142;DHT22;58808;59.366;17.970;2023-08-20T07:48:35;17.20;99.90
71142;DHT22;58808;59.366;17.970;2023-08-20T07:51:02;17.30;99.90
71142;DHT22;58808;59.366;17.970;2023-08-20T07:53:29;17.20;99.90
71142;DHT22;58808;59.366;17.970;2023-08-20T07:55:55;17.20;99.90
71142;DHT22;58808;59.366;17.970;2023-08-20T07:58:20;17.10;99.90
71142;DHT22;58808;59.366;17.970;2023-08-20T08:00:46;17.20;99.90
71142;DHT22;58808;59.366;17.970;2023-08-20T08:03:12;17.10;99.90
71142;DHT22;58808;59.366;17.970;2023-08-20T08:05:47;17.10;99.90
71142;DHT22;58808;59.366;17.970;2023-08-20T08:08:14;17.10;99.90
71142;DHT22;58808;59.366;17.970;2023-08-20T08:10:40;17.10;99.90
71142;DHT22;58808;59.366;17.970;2023-08-20T08:13:06;17.20;99.90
71142;DHT22;58808;59.366;17.970;2023-08-20T08:15:31;17.20;99.90
71142;DHT22;58808;59.366;17.970;2023-08-20T08:17:57;17.20;99.90
71142;DHT22;58808;59.366;17.970;2023-08-20T08:20:23;17.20;99.90
71142;DHT22;58808;59.366;17.970;2023-08-20T08:22:48;17.20;99.90
71142;DHT22;58808;59.366;17.970;2023-08-20T08:25:14;17.20;99.90
71142;DHT22;58808;59.366;17.970;2023-08-20T08:27:39;17.20;99.90
71142;DHT22;58808;59.366;17.970;2023-08-20T08:30:06;17.20;99.90
71142;DHT22;58808;59.366;17.970;2023-08-20T08:32:31;17.30;99.90
71142;DHT22;58808;59.366;17.970;2023-08-20T08:34:57;17.30;99.90
71142;DHT22;58808;59.366;17.970;2023-08-20T08:37:23;17.30;99.90
71142;DHT22;58808;59.366;17.970;2023-08-20T08:39:48;17.30;99.90
71142;DHT22;58808;59.366;17.970;2023-08-20T08:42:14;17.30;99.90
71142;DHT22;58808;59.366;17.970;2023-08-20T08:44:41;17.30;99.90
71142;DHT22;58808;59.366;17.970;2023-08-20T08:47:09;17.40;99.90
71142;DHT22;58808;59.366;17.970;2023-08-20T08:49:35;17.40;99.90
71142;DHT22;58808;59.366;17.970;2023-08-20T08:52:01;17.40;99.90
71142;DHT22;58808;59.366;17.970;2023-08-20T08:54:28;17.40;99.90
71142;DHT22;58808;59.366;17.970;2023-08-20T08:56:55;17.50;99.90
71142;DHT22;58808;59.366;17.970;2023-08-20T08:59:21;17.50;99.90
71142;DHT22;58808;59.366;17.970;2023-08-20T09:01:47;17.60;99.90
71142;DHT22;58808;59.366;17.970;2023-08-20T09:04:13;17.60;99.90
71142;DHT22;58808;59.366;17.970;2023-08-20T09:09:12;17.70;99.90
71142;DHT22;58808;59.366;17.970;2023-08-20T09:11:38;17.60;99.90
71142;DHT22;58808;59.366;17.970;2023-08-20T09:14:04;17.60;99.90
71142;DHT22;58808;59.366;17.970;2023-08-20T09:16:30;17.60;99.90
71142;DHT22;58808;59.366;17.970;2023-08-20T09:18:59;17.60;99.90
71142;DHT22;58808;59.366;17.970;2023-08-20T09:21:28;17.70;99.90
71142;DHT22;58808;59.366;17.970;2023-08-20T09:23:58;17.70;99.90
71142;DHT22;58808;59.366;17.970;2023-08-20T09:26:27;17.70;99.90
71142;DHT22;58808;59.366;17.970;2023-08-20T09:28:55;17.70;99.90
71142;DHT22;58808;59.366;17.970;2023-08-20T09:31:39;17.70;99.90
71142;DHT22;58808;59.366;17.970;2023-08-20T09:34:05;17.80;99.90
71142;DHT22;58808;59.366;17.970;2023-08-20T09:36:34;17.80;99.90
71142;DHT22;58808;59.366;17.970;2023-08-20T09:39:03;17.90;99.90
71142;DHT22;58808;59.366;17.970;2023-08-20T09:41:30;18.00;99.90
71142;DHT22;58808;59.366;17.970;2023-08-20T09:43:58;18.00;99.90
71142;DHT22;58808;59.366;17.970;2023-08-20T09:46:25;18.10;99.90
71142;DHT22;58808;59.366;17.970;2023-08-20T09:48:51;18.20;99.90
71142;DHT22;58808;59.366;17.970;2023-08-20T09:51:25;18.20;99.90
71142;DHT22;58808;59.366;17.970;2023-08-20T09:54:12;18.30;99.90
71142;DHT22;58808;59.366;17.970;2023-08-20T09:56:40;18.30;99.90
71142;DHT22;58808;59.366;17.970;2023-08-20T09:59:06;18.30;99.90
71142;DHT22;58808;59.366;17.970;2023-08-20T10:08:01;18.30;99.90
71142;DHT22;58808;59.366;17.970;2023-08-20T10:10:28;18.30;99.90
71142;DHT22;58808;59.366;17.970;2023-08-20T10:12:54;18.40;99.90
71142;DHT22;58808;59.366;17.970;2023-08-20T10:15:22;18.40;99.90
71142;DHT22;58808;59.366;17.970;2023-08-20T10:17:49;18.40;99.90
71142;DHT22;58808;59.366;17.970;2023-08-20T10:20:15;18.50;99.90
71142;DHT22;58808;59.366;17.970;2023-08-20T10:22:44;18.50;99.90
71142;DHT22;58808;59.366;17.970;2023-08-20T10:25:12;18.50;99.90
71142;DHT22;58808;59.366;17.970;2023-08-20T10:27:40;18.50;99.90
71142;DHT22;58808;59.366;17.970;2023-08-20T10:30:17;18.50;99.90
71142;DHT22;58808;59.366;17.970;2023-08-20T10:38:12;18.60;99.90
71142;DHT22;58808;59.366;17.970;2023-08-20T10:43:29;18.40;99.90
71142;DHT22;58808;59.366;17.970;2023-08-20T10:48:34;18.40;99.90
71142;DHT22;58808;59.366;17.970;2023-08-20T10:53:41;18.40;99.90
71142;DHT22;58808;59.366;17.970;2023-08-20T10:56:15;18.40;99.90
71142;DHT22;58808;59.366;17.970;2023-08-20T10:58:47;18.40;99.90
71142;DHT22;58808;59.366;17.970;2023-08-20T11:01:19;18.40;99.90
71142;DHT22;58808;59.366;17.970;2023-08-20T11:03:50;18.40;99.90
71142;DHT22;58808;59.366;17.970;2023-08-20T11:06:17;18.40;99.90
71142;DHT22;58808;59.366;17.970;2023-08-20T11:08:44;18.40;99.90
71142;DHT22;58808;59.366;17.970;2023-08-20T11:11:10;18.40;99.90
71142;DHT22;58808;59.366;17.970;2023-08-20T11:13:37;18.40;99.90
71142;DHT22;58808;59.366;17.970;2023-08-20T11:16:04;18.40;99.90
71142;DHT22;58808;59.366;17.970;2023-08-20T11:18:34;18.40;99.90
71142;DHT22;58808;59.366;17.970;2023-08-20T11:21:00;18.40;99.90
71142;DHT22;58808;59.366;17.970;2023-08-20T11:23:28;18.40;99.90
71142;DHT22;58808;59.366;17.970;2023-08-20T11:25:54;18.40;99.90
71142;DHT22;58808;59.366;17.970;2023-08-20T11:28:20;18.40;99.90
71142;DHT22;58808;59.366;17.970;2023-08-20T11:30:47;18.40;99.90
71142;DHT22;58808;59.366;17.970;2023-08-20T11:33:13;18.40;99.90
71142;DHT22;58808;59.366;17.970;2023-08-20T11:35:38;18.40;99.90
71142;DHT22;58808;59.366;17.970;2023-08-20T11:38:05;18.40;99.90
71142;DHT22;58808;59.366;17.970;2023-08-20T11:40:31;18.40;99.90
71142;DHT22;58808;59.366;17.970;2023-08-20T11:42:57;18.40;99.90
71142;DHT22;58808;59.366;17.970;2023-08-20T11:45:23;18.40;99.90
71142;DHT22;58808;59.366;17.970;2023-08-20T11:47:49;18.40;99.90
71142;DHT22;58808;59.366;17.970;2023-08-20T11:50:14;18.40;99.90
71142;DHT22;58808;59.366;17.970;2023-08-20T11:52:40;18.40;99.90
71142;DHT22;58808;59.366;17.970;2023-08-20T11:55:06;18.40;99.90
71142;DHT22;58808;59.366;17.970;2023-08-20T11:57:32;18.40;99.90
71142;DHT22;58808;59.366;17.970;2023-08-20T12:00:05;18.40;99.90
71142;DHT22;58808;59.366;17.970;2023-08-20T12:02:41;18.40;99.90
71142;DHT22;58808;59.366;17.970;2023-08-20T12:05:07;18.50;99.90
71142;DHT22;58808;59.366;17.970;2023-08-20T12:07:33;18.50;99.90
71142;DHT22;58808;59.366;17.970;2023-08-20T12:10:19;18.50;99.90
71142;DHT22;58808;59.366;17.970;2023-08-20T12:12:44;18.50;99.90
71142;DHT22;58808;59.366;17.970;2023-08-20T12:15:10;18.50;99.90
71142;DHT22;58808;59.366;17.970;2023-08-20T12:17:36;18.40;99.90
71142;DHT22;58808;59.366;17.970;2023-08-20T12:20:02;18.40;99.90
71142;DHT22;58808;59.366;17.970;2023-08-20T12:22:35;18.40;99.90
71142;DHT22;58808;59.366;17.970;2023-08-20T12:25:01;18.40;99.90
71142;DHT22;58808;59.366;17.970;2023-08-20T12:27:26;18.40;99.90
71142;DHT22;58808;59.366;17.970;2023-08-20T12:29:53;18.40;99.90
71142;DHT22;58808;59.366;17.970;2023-08-20T12:32:18;18.50;99.90
71142;DHT22;58808;59.366;17.970;2023-08-20T12:34:44;18.50;99.90
71142;DHT22;58808;59.366;17.970;2023-08-20T12:37:10;18.50;99.90
71142;DHT22;58808;59.366;17.970;2023-08-20T12:39:35;18.60;99.90
71142;DHT22;58808;59.366;17.970;2023-08-20T12:42:01;18.60;99.90
71142;DHT22;58808;59.366;17.970;2023-08-20T12:44:27;18.60;99.90
71142;DHT22;58808;59.366;17.970;2023-08-20T12:46:53;18.60;99.90
71142;DHT22;58808;59.366;17.970;2023-08-20T12:49:19;18.60;99.90
71142;DHT22;58808;59.366;17.970;2023-08-20T12:51:44;18.60;99.90
71142;DHT22;58808;59.366;17.970;2023-08-20T12:54:10;18.60;99.90
71142;DHT22;58808;59.366;17.970;2023-08-20T12:56:36;18.60;99.90
71142;DHT22;58808;59.366;17.970;2023-08-20T12:59:02;18.60;99.90
71142;DHT22;58808;59.366;17.970;2023-08-20T13:01:28;18.60;99.90
71142;DHT22;58808;59.366;17.970;2023-08-20T13:03:54;18.50;99.90
71142;DHT22;58808;59.366;17.970;2023-08-20T13:06:20;18.50;99.90
71142;DHT22;58808;59.366;17.970;2023-08-20T13:08:46;18.50;99.90
71142;DHT22;58808;59.366;17.970;2023-08-20T13:11:13;18.50;99.90
71142;DHT22;58808;59.366;17.970;2023-08-20T13:13:42;18.50;99.90
71142;DHT22;58808;59.366;17.970;2023-08-20T13:16:08;18.50;99.90
71142;DHT22;58808;59.366;17.970;2023-08-20T13:18:34;18.60;99.90
71142;DHT22;58808;59.366;17.970;2023-08-20T13:21:01;18.50;99.90
71142;DHT22;58808;59.366;17.970;2023-08-20T13:23:29;18.50;99.90
71142;DHT22;58808;59.366;17.970;2023-08-20T13:25:55;18.50;99.90
71142;DHT22;58808;59.366;17.970;2023-08-20T13:28:20;18.50;99.90
71142;DHT22;58808;59.366;17.970;2023-08-20T13:30:46;18.50;99.90
71142;DHT22;58808;59.366;17.970;2023-08-20T13:33:13;18.40;99.90
71142;DHT22;58808;59.366;17.970;2023-08-20T13:35:39;18.40;99.90
71142;DHT22;58808;59.366;17.970;2023-08-20T13:38:04;18.40;99.90
71142;DHT22;58808;59.366;17.970;2023-08-20T13:40:30;18.40;99.90
71142;DHT22;58808;59.366;17.970;2023-08-20T13:42:56;18.40;99.90
71142;DHT22;58808;59.366;17.970;2023-08-20T13:45:21;18.40;99.90
71142;DHT22;58808;59.366;17.970;2023-08-20T13:47:47;18.40;99.90
71142;DHT22;58808;59.366;17.970;2023-08-20T13:50:13;18.40;99.90
71142;DHT22;58808;59.366;17.970;2023-08-20T13:52:39;18.40;99.90
71142;DHT22;58808;59.366;17.970;2023-08-20T13:55:05;18.40;99.90
71142;DHT22;58808;59.366;17.970;2023-08-20T13:57:31;18.30;99.90
71142;DHT22;58808;59.366;17.970;2023-08-20T13:59:56;18.30;99.90
71142;DHT22;58808;59.366;17.970;2023-08-20T14:02:22;18.40;99.90
71142;DHT22;58808;59.366;17.970;2023-08-20T14:04:48;18.40;99.90
71142;DHT22;58808;59.366;17.970;2023-08-20T14:07:13;18.30;99.90
71142;DHT22;58808;59.366;17.970;2023-08-20T14:09:39;18.30;99.90
71142;DHT22;58808;59.366;17.970;2023-08-20T14:12:06;18.30;99.90
71142;DHT22;58808;59.366;17.970;2023-08-20T14:14:32;18.30;99.90
71142;DHT22;58808;59.366;17.970;2023-08-20T14:16:57;18.30;99.90
71142;DHT22;58808;59.366;17.970;2023-08-20T14:19:23;18.20;99.90
71142;DHT22;58808;59.366;17.970;2023-08-20T14:21:49;18.30;99.90
71142;DHT22;58808;59.366;17.970;2023-08-20T14:24:14;18.30;99.90
71142;DHT22;58808;59.366;17.970;2023-08-20T14:26:40;18.20;99.90
71142;DHT22;58808;59.366;17.970;2023-08-20T14:29:05;18.20;99.90
71142;DHT22;58808;59.366;17.970;2023-08-20T14:31:31;18.20;99.90
71142;DHT22;58808;59.366;17.970;2023-08-20T14:33:57;18.20;99.90
71142;DHT22;58808;59.366;17.970;2023-08-20T14:36:23;18.20;99.90
71142;DHT22;58808;59.366;17.970;2023-08-20T14:38:48;18.20;99.90
71142;DHT22;58808;59.366;17.970;2023-08-20T14:41:14;18.20;99.90
71142;DHT22;58808;59.366;17.970;2023-08-20T14:43:43;18.20;99.90
71142;DHT22;58808;59.366;17.970;2023-08-20T14:46:09;18.10;99.90
71142;DHT22;58808;59.366;17.970;2023-08-20T14:48:34;18.10;99.90
71142;DHT22;58808;59.366;17.970;2023-08-20T14:51:00;18.10;99.90
71142;DHT22;58808;59.366;17.970;2023-08-20T14:53:26;18.00;99.90
71142;DHT22;58808;59.366;17.970;2023-08-20T14:55:52;17.90;99.90
71142;DHT22;58808;59.366;17.970;2023-08-20T14:58:17;17.80;99.90
71142;DHT22;58808;59.366;17.970;2023-08-20T15:00:43;17.80;99.90
71142;DHT22;58808;59.366;17.970;2023-08-20T15:03:09;17.80;99.90
71142;DHT22;58808;59.366;17.970;2023-08-20T15:05:35;17.80;99.90
71142;DHT22;58808;59.366;17.970;2023-08-20T15:08:01;17.80;99.90
71142;DHT22;58808;59.366;17.970;2023-08-20T15:10:28;17.80;99.90
71142;DHT22;58808;59.366;17.970;2023-08-20T15:12:54;17.80;99.90
71142;DHT22;58808;59.366;17.970;2023-08-20T15:15:19;17.80;99.90
71142;DHT22;58808;59.366;17.970;2023-08-20T15:17:46;17.80;99.90
71142;DHT22;58808;59.366;17.970;2023-08-20T15:20:12;17.80;99.90
71142;DHT22;58808;59.366;17.970;2023-08-20T15:22:37;17.80;99.90
71142;DHT22;58808;59.366;17.970;2023-08-20T15:25:04;17.80;99.90
71142;DHT22;58808;59.366;17.970;2023-08-20T15:27:32;17.80;99.90
71142;DHT22;58808;59.366;17.970;2023-08-20T15:29:58;17.80;99.90
71142;DHT22;58808;59.366;17.970;2023-08-20T15:32:24;17.80;99.90
71142;DHT22;58808;59.366;17.970;2023-08-20T15:34:52;17.80;99.90
71142;DHT22;58808;59.366;17.970;2023-08-20T15:37:18;17.80;99.90
71142;DHT22;58808;59.366;17.970;2023-08-20T15:39:44;17.80;99.90